地図

経路データ

SID SEASON NUMBER BASIN SUBBASIN NAME ISO_TIME NATURE LAT LON WMO_WIND WMO_PRES WMO_AGENCY TRACK_TYPE DIST2LAND LANDFALL IFLAG USA_AGENCY USA_ATCF_ID USA_LAT USA_LON USA_RECORD USA_STATUS USA_WIND USA_PRES USA_SSHS USA_R34_NE USA_R34_SE USA_R34_SW USA_R34_NW USA_R50_NE USA_R50_SE USA_R50_SW USA_R50_NW USA_R64_NE USA_R64_SE USA_R64_SW USA_R64_NW USA_POCI USA_ROCI USA_RMW USA_EYE TOKYO_LAT TOKYO_LON TOKYO_GRADE TOKYO_WIND TOKYO_PRES TOKYO_R50_DIR TOKYO_R50_LONG TOKYO_R50_SHORT TOKYO_R30_DIR TOKYO_R30_LONG TOKYO_R30_SHORT TOKYO_LAND CMA_LAT CMA_LON CMA_CAT CMA_WIND CMA_PRES HKO_LAT HKO_LON HKO_CAT HKO_WIND HKO_PRES NEWDELHI_LAT NEWDELHI_LON NEWDELHI_GRADE NEWDELHI_WIND NEWDELHI_PRES NEWDELHI_CI NEWDELHI_DP NEWDELHI_POCI REUNION_LAT REUNION_LON REUNION_TYPE REUNION_WIND REUNION_PRES REUNION_TNUM REUNION_CI REUNION_RMW REUNION_R34_NE REUNION_R34_SE REUNION_R34_SW REUNION_R34_NW REUNION_R50_NE REUNION_R50_SE REUNION_R50_SW REUNION_R50_NW REUNION_R64_NE REUNION_R64_SE REUNION_R64_SW REUNION_R64_NW BOM_LAT BOM_LON BOM_TYPE BOM_WIND BOM_PRES BOM_TNUM BOM_CI BOM_RMW BOM_R34_NE BOM_R34_SE BOM_R34_SW BOM_R34_NW BOM_R50_NE BOM_R50_SE BOM_R50_SW BOM_R50_NW BOM_R64_NE BOM_R64_SE BOM_R64_SW BOM_R64_NW BOM_ROCI BOM_POCI BOM_EYE BOM_POS_METHOD BOM_PRES_METHOD NADI_LAT NADI_LON NADI_CAT NADI_WIND NADI_PRES WELLINGTON_LAT WELLINGTON_LON WELLINGTON_WIND WELLINGTON_PRES DS824_LAT DS824_LON DS824_STAGE DS824_WIND DS824_PRES TD9636_LAT TD9636_LON TD9636_STAGE TD9636_WIND TD9636_PRES TD9635_LAT TD9635_LON TD9635_WIND TD9635_PRES TD9635_ROCI NEUMANN_LAT NEUMANN_LON NEUMANN_CLASS NEUMANN_WIND NEUMANN_PRES MLC_LAT MLC_LON MLC_CLASS MLC_WIND MLC_PRES USA_GUST BOM_GUST BOM_GUST_PER REUNION_GUST REUNION_GUST_PER USA_SEAHGT USA_SEARAD_NE USA_SEARAD_SE USA_SEARAD_SW USA_SEARAD_NW STORM_SPEED STORM_DIR
2011160N18070 2011 28 NI AS NOT_NAMED 2011-06-09 06:00:00 NR 18.1000 69.9000 main 305 289 O_____________ jtwc_io IO012011 18.1000 69.9000 DB 20 1007 -3 4 64
2011160N18070 2011 28 NI AS NOT_NAMED 2011-06-09 09:00:00 NR 18.1925 70.1050 main 289 271 P_____________ IO012011 18.1925 70.1050 DB 22 1005 -3 4 62
2011160N18070 2011 28 NI AS NOT_NAMED 2011-06-09 12:00:00 TS 18.3000 70.3000 main 271 248 O_____________ jtwc_io IO012011 18.3000 70.3000 TD 25 1004 -1 4 55
2011160N18070 2011 28 NI AS NOT_NAMED 2011-06-09 15:00:00 TS 18.4350 70.4725 main 248 234 P_____________ IO012011 18.4350 70.4725 TD 25 1004 -1 4 43
2011160N18070 2011 28 NI AS NOT_NAMED 2011-06-09 18:00:00 TS 18.6000 70.6000 main 234 213 O_____________ jtwc_io IO012011 18.6000 70.6000 TD 25 1004 -1 1001 150 35 4 23
2011160N18070 2011 28 NI AS NOT_NAMED 2011-06-09 21:00:00 TS 18.8149 70.6426 main 213 190 P_____________ IO012011 18.8149 70.6426 TD 25 1004 -1 1001 150 35 4 13
2011160N18070 2011 28 NI AS NOT_NAMED 2011-06-10 00:00:00 TS 19.0000 70.7000 main 190 178 O_____________ jtwc_io IO012011 19.0000 70.7000 TD 25 1004 -1 1001 150 35 3 37
2011160N18070 2011 28 NI AS NOT_NAMED 2011-06-10 03:00:00 TS 19.0875 70.8625 main 179 173 P_____________ IO012011 19.0875 70.8625 TD 25 1004 -1 1000 140 35 4 75
2011160N18070 2011 28 NI AS NOT_NAMED 2011-06-10 06:00:00 TS 19.1000 71.1000 main 173 143 O_____________ jtwc_io IO012011 19.1000 71.1000 TD 25 1004 -1 1000 130 35 5 94
2011160N18070 2011 28 NI AS NOT_NAMED 2011-06-10 09:00:00 TS 19.0501 71.4151 main 143 115 P_____________ IO012011 19.0501 71.4151 TD 27 1002 -1 1000 130 35 6 100
2011160N18070 2011 28 NI AS NOT_NAMED 2011-06-10 12:00:00 TS 19.0000 71.7000 main 115 105 O_____________ jtwc_io IO012011 19.0000 71.7000 TD 30 1000 -1 1001 130 35 4 92
2011160N18070 2011 28 NI AS NOT_NAMED 2011-06-10 15:00:00 TS 19.0349 71.8300 main 105 94 P_____________ IO012011 19.0349 71.8300 TD 30 999 -1 1000 127 35 2 62
2011160N18070 2011 28 NI AS NOT_NAMED 2011-06-10 18:00:00 TS 19.1000 71.9000 main 94 84 O_____________ jtwc_io IO012011 19.1000 71.9000 TD 30 999 -1 1000 125 35 2 61
2011160N18070 2011 28 NI AS NOT_NAMED 2011-06-10 21:00:00 TS 19.1350 72.0225 main 84 71 P_____________ IO012011 19.1350 72.0225 TD 30 998 -1 1000 125 35 2 62
2011160N18070 2011 28 NI AS NOT_NAMED 2011-06-11 00:00:00 TS 19.2000 72.1000 main 71 66 O_____________ jtwc_io IO012011 19.2000 72.1000 TD 30 998 -1 1001 125 35 2 17
2011160N18070 2011 28 NI AS NOT_NAMED 2011-06-11 03:00:00 TS 19.3200 72.0875 main 66 63 P_____________ IO012011 19.3200 72.0875 TD 32 997 -1 1001 125 35 3 343
2011160N18070 2011 28 NI AS NOT_NAMED 2011-06-11 06:00:00 TS 19.5000 72.0000 main 73 73 O_____________ jtwc_io IO012011 19.5000 72.0000 TS 35 996 0 1001 125 35 5 335
2011160N18070 2011 28 NI AS NOT_NAMED 2011-06-11 09:00:00 TS 19.7500 71.8726 main 83 83 P_____________ IO012011 19.7500 71.8726 TS 35 996 0 1001 130 35 6 327
2011160N18070 2011 28 NI AS NOT_NAMED 2011-06-11 12:00:00 TS 20.0000 71.6600 25 996 newdelhi main 105 91 O___O_________ jtwc_io IO012011 20.0000 71.7000 TS 35 996 0 50 50 50 50 1001 135 35 20.0000 71.5000 D 25 996 1.50000 4 4 316
2011160N18070 2011 28 NI AS NOT_NAMED 2011-06-11 15:00:00 TS 20.0694 71.5501 main 91 74 P___P_________ IO012011 20.1725 71.5075 TS 35 996 0 50 50 50 50 1000 130 32 19.8632 71.6354 D 25 996 4 3 304
2011160N18070 2011 28 NI AS NOT_NAMED 2011-06-11 18:00:00 TS 20.1714 71.3857 25 996 newdelhi main 74 33 O___O_________ jtwc_io IO012011 20.3000 71.3000 TS 35 996 0 50 50 50 50 1000 125 30 20.0000 71.5000 D 25 996 1.50000 4 6 311
2011160N18070 2011 28 NI AS NOT_NAMED 2011-06-11 21:00:00 TS 20.4824 71.0413 main 30 0 P___P_________ IO012011 20.4299 71.1150 TS 32 998 -1 20.5348 70.9675 D 25 996 4 8 311
2011160N18070 2011 28 NI AS NOT_NAMED 2011-06-12 00:00:00 TS 20.7143 70.7286 25 996 newdelhi main 10 10 O___O_________ jtwc_io IO012011 20.5000 70.9000 TD 30 1000 -1 21.0000 70.5000 D 25 996 0.00000 4 5 287
2011160N18070 2011 28 NI AS NOT_NAMED 2011-06-12 03:00:00 TS 20.6184 70.5565 20 998 newdelhi main 23 23 P___O_________ IO012011 20.4276 70.5847 TD 25 1003 -1 21.0000 70.5000 D 20 998 0.00000 3 4 245
2011160N18070 2011 28 NI AS NOT_NAMED 2011-06-12 06:00:00 NR 20.5500 70.3500 20 999 newdelhi main 35 35 O___O_________ jtwc_io IO012011 20.4000 70.3000 DB 20 1007 -3 1001 125 30 21.0000 70.5000 D 20 999 0.00000 3 4 265
2011160N18070 2011 28 NI AS NOT_NAMED 2011-06-12 09:00:00 NR 20.5824 70.1552 main 45 24 P_____________ IO012011 20.5824 70.1552 DB 22 1005 -3 1003 125 30 4 326
2011160N18070 2011 28 NI AS NOT_NAMED 2011-06-12 12:00:00 TS 20.9000 70.1000 main 24 O_____________ jtwc_io IO012011 20.9000 70.1000 TD 25 1004 -1 1005 125 30 6 351

IBTrACS Databaseについて

本データベースは、米国NOAAが公開する1842年以降の世界の熱帯低気圧のベストトラックデータアーカイブInternational Best Track Archive for Climate Stewardship (IBTrACS)を、ウェブで閲覧しやすい形式に変換したものです。

最終更新日:2021-10-08